Time;durP1;ratioP1;P1;durP2;ratioP2;P2;SDS_P1;SDS_P2;PMS_P1;PMS_P2;Temp;Humidity;BMP_temperature;BMP_pressure;BME280_temperature;BME280_humidity;BME280_pressure;Samples;Min_cycle;Max_cycle;Signal;HPM_P1;HPM_P2
2021/12/21 00:00:56;;;;;;;24.90;11.13;;;2.00;99.90;;;;;;4997332;28;20033;-83
2021/12/21 00:03:21;;;;;;;29.50;12.30;;;1.90;99.90;;;;;;5001625;28;20109;-82
2021/12/21 00:05:47;;;;;;;22.87;10.67;;;1.80;99.90;;;;;;4997079;28;20585;-81
2021/12/21 00:08:15;;;;;;;28.50;12.00;;;1.80;99.90;;;;;;5001800;28;20053;-83
2021/12/21 00:10:43;;;;;;;25.63;11.40;;;1.80;99.90;;;;;;4983322;28;20026;-82
2021/12/21 00:21:00;;;;;;;25.17;11.43;;;1.70;99.90;;;;;;4999527;28;20030;-84
2021/12/21 00:23:39;;;;;;;21.33;10.27;;;1.70;99.90;;;;;;4984177;28;20037;-84
2021/12/21 00:26:08;;;;;;;26.17;10.47;;;1.80;99.90;;;;;;4997019;28;20030;-83
2021/12/21 00:28:42;;;;;;;24.53;11.17;;;1.80;99.90;;;;;;5000168;28;20526;-85
2021/12/21 00:31:08;;;;;;;25.13;10.57;;;1.90;99.90;;;;;;5000179;28;20434;-88
2021/12/21 00:33:34;;;;;;;24.17;9.63;;;1.90;99.90;;;;;;4985708;28;20054;-87
2021/12/21 00:36:00;;;;;;;25.43;10.30;;;1.80;99.90;;;;;;5000900;28;20038;-88
2021/12/21 00:38:26;;;;;;;23.30;10.30;;;1.80;99.90;;;;;;5000777;28;20037;-86
2021/12/21 00:40:51;;;;;;;21.23;9.00;;;1.70;99.90;;;;;;5003341;28;20054;-83
2021/12/21 00:43:17;;;;;;;23.20;9.23;;;1.60;99.90;;;;;;5006377;28;20034;-88
2021/12/21 00:45:43;;;;;;;19.90;8.47;;;1.50;99.90;;;;;;5005249;28;20029;-89
2021/12/21 00:48:08;;;;;;;21.93;8.87;;;1.10;99.90;;;;;;5006679;28;20031;-90
2021/12/21 00:50:34;;;;;;;27.83;9.90;;;0.90;99.90;;;;;;5014391;28;20061;-90
2021/12/21 00:53:01;;;;;;;25.63;10.43;;;0.70;99.90;;;;;;5014808;28;20058;-82
2021/12/21 00:55:27;;;;;;;22.13;8.80;;;0.70;99.90;;;;;;5009310;28;20039;-86
2021/12/21 00:57:52;;;;;;;23.40;10.03;;;0.60;99.90;;;;;;4990658;28;20833;-93
2021/12/21 01:00:21;;;;;;;23.40;8.93;;;0.50;99.90;;;;;;4989385;28;20101;-82
2021/12/21 01:02:49;;;;;;;26.40;10.20;;;0.50;99.90;;;;;;5007275;28;20089;-92
2021/12/21 01:05:32;;;;;;;28.30;11.17;;;0.40;99.90;;;;;;5008154;28;20029;-89
2021/12/21 01:08:01;;;;;;;27.83;10.10;;;0.50;99.90;;;;;;5002336;28;20027;-82
2021/12/21 01:18:26;;;;;;;27.00;9.77;;;0.20;99.90;;;;;;5002132;28;20038;-82
2021/12/21 01:21:05;;;;;;;27.13;9.00;;;0.10;99.90;;;;;;4981035;28;20093;-84
2021/12/21 01:26:11;;;;;;;24.43;9.63;;;-0.30;99.90;;;;;;4996568;28;20057;-81
2021/12/21 01:31:28;;;;;;;25.00;9.07;;;-0.40;99.90;;;;;;4980536;28;20026;-81
2021/12/21 01:34:22;;;;;;;22.33;10.07;;;-0.50;99.90;;;;;;4981843;28;20416;-81
2021/12/21 01:52:06;;;;;;;29.60;11.87;;;0.10;99.90;;;;;;4997330;28;20038;-81
2021/12/21 01:54:32;;;;;;;27.13;10.93;;;0.40;99.90;;;;;;4994728;28;20027;-82
2021/12/21 01:56:58;;;;;;;24.00;10.27;;;0.60;99.90;;;;;;4977410;28;20038;-81
2021/12/21 01:59:25;;;;;;;23.07;8.50;;;0.80;99.90;;;;;;4977407;28;20030;-82
2021/12/21 02:01:51;;;;;;;19.20;8.03;;;0.80;99.90;;;;;;4995881;28;20029;-81
2021/12/21 02:04:17;;;;;;;23.70;8.37;;;0.60;99.90;;;;;;4990867;28;20026;-82
2021/12/21 02:06:44;;;;;;;24.07;9.17;;;0.60;99.90;;;;;;4972276;28;20043;-81
2021/12/21 02:09:10;;;;;;;23.37;10.27;;;0.60;99.90;;;;;;4992070;28;20038;-81
2021/12/21 02:11:36;;;;;;;23.00;9.23;;;0.70;99.90;;;;;;4976455;28;20061;-83
2021/12/21 02:14:05;;;;;;;27.43;9.73;;;0.90;99.90;;;;;;4983655;28;20018;-82
2021/12/21 02:16:40;;;;;;;19.33;8.10;;;0.90;99.90;;;;;;4994956;28;20034;-82
2021/12/21 02:19:17;;;;;;;21.33;8.93;;;0.70;99.90;;;;;;4994583;28;20030;-82
2021/12/21 02:21:50;;;;;;;17.57;8.37;;;0.70;99.90;;;;;;4995222;28;20034;-81
2021/12/21 02:24:21;;;;;;;19.27;8.70;;;0.80;99.90;;;;;;5002221;28;20098;-82
2021/12/21 02:29:35;;;;;;;22.97;8.33;;;1.00;99.90;;;;;;5005251;28;20038;-82
2021/12/21 02:32:01;;;;;;;29.10;8.83;;;0.90;99.90;;;;;;5023165;28;20058;-80
2021/12/21 02:34:27;;;;;;;23.33;9.27;;;0.70;99.90;;;;;;4964907;28;20051;-81
2021/12/21 02:36:56;;;;;;;22.43;9.10;;;0.40;99.90;;;;;;4978333;28;20034;-81
2021/12/21 02:39:23;;;;;;;22.60;8.90;;;0.30;99.90;;;;;;4972576;28;20499;-81
2021/12/21 02:41:49;;;;;;;23.00;8.67;;;0.30;99.90;;;;;;4988398;28;20037;-81
2021/12/21 02:44:15;;;;;;;22.90;8.37;;;0.20;99.90;;;;;;4990822;28;20039;-79
2021/12/21 02:46:42;;;;;;;25.33;8.47;;;0.10;99.90;;;;;;4993158;28;20082;-80
2021/12/21 02:49:09;;;;;;;25.30;8.47;;;0.10;99.90;;;;;;4993882;28;20435;-81
2021/12/21 02:51:39;;;;;;;26.47;9.07;;;-0.10;99.90;;;;;;4990209;28;20486;-79
2021/12/21 02:54:04;;;;;;;24.10;9.07;;;-0.30;99.90;;;;;;4992219;28;20042;-80
2021/12/21 02:56:30;;;;;;;22.33;9.67;;;-0.40;99.90;;;;;;4977569;28;20396;-81
2021/12/21 02:58:56;;;;;;;24.83;8.80;;;-0.40;99.90;;;;;;4973079;28;20031;-79
2021/12/21 03:01:22;;;;;;;25.30;9.47;;;-0.50;99.90;;;;;;4968775;28;20113;-81
2021/12/21 03:03:47;;;;;;;29.73;10.63;;;-0.50;99.90;;;;;;4991808;28;20102;-80
2021/12/21 03:06:40;;;;;;;26.10;10.27;;;-0.40;99.90;;;;;;4992791;28;20038;-78
2021/12/21 03:08:59;;;;;;;25.53;9.87;;;-0.20;99.90;;;;;;4992588;28;20050;-77
2021/12/21 03:11:47;;;;;;;27.43;9.47;;;-0.20;99.90;;;;;;4976449;28;20029;-78
2021/12/21 03:14:13;;;;;;;26.27;9.73;;;-0.30;99.90;;;;;;4992703;28;20129;-78
2021/12/21 03:16:40;;;;;;;28.63;9.83;;;-0.30;99.90;;;;;;4993397;28;20112;-78
2021/12/21 03:19:08;;;;;;;27.97;10.00;;;-0.30;99.90;;;;;;4994442;28;20027;-78
2021/12/21 03:21:37;;;;;;;28.03;10.07;;;-0.40;99.90;;;;;;4996151;28;20446;-79
2021/12/21 03:24:04;;;;;;;25.87;10.30;;;-0.40;99.90;;;;;;4996070;28;20026;-77
2021/12/21 03:26:30;;;;;;;25.70;9.77;;;-0.30;99.90;;;;;;4997545;28;20038;-79
2021/12/21 03:28:56;;;;;;;22.67;8.87;;;-0.50;99.90;;;;;;4980402;28;20463;-79
2021/12/21 03:31:21;;;;;;;31.00;11.73;;;-0.60;99.90;;;;;;4979575;28;20089;-78
2021/12/21 03:33:48;;;;;;;30.07;13.00;;;-0.40;99.90;;;;;;4979248;28;20054;-78
2021/12/21 03:36:16;;;;;;;25.87;10.10;;;-0.20;99.90;;;;;;4995481;28;20088;-79
2021/12/21 03:39:09;;;;;;;25.30;9.10;;;-0.20;99.90;;;;;;4996442;28;20435;-79
2021/12/21 03:41:34;;;;;;;29.90;10.57;;;-0.50;99.90;;;;;;4996628;28;20536;-79
2021/12/21 03:44:01;;;;;;;30.93;11.80;;;-0.50;99.90;;;;;;4995889;28;20101;-81
2021/12/21 03:46:29;;;;;;;30.87;12.20;;;-0.50;99.90;;;;;;4979792;28;20081;-78
2021/12/21 03:48:54;;;;;;;37.00;14.43;;;-0.50;99.90;;;;;;4995547;28;20582;-77
2021/12/21 03:51:21;;;;;;;33.77;14.00;;;-0.50;99.90;;;;;;4979383;28;20113;-78
2021/12/21 03:53:49;;;;;;;32.67;13.53;;;-0.20;99.90;;;;;;4979723;28;20038;-77
2021/12/21 03:56:38;;;;;;;32.17;11.93;;;-0.20;99.90;;;;;;4996999;28;20127;-79
2021/12/21 03:59:05;;;;;;;31.40;12.83;;;-0.20;99.90;;;;;;4996321;28;20022;-77
2021/12/21 04:01:31;;;;;;;26.73;10.90;;;-0.30;99.90;;;;;;4995176;28;20027;-78
2021/12/21 04:03:57;;;;;;;26.57;10.77;;;-0.40;99.90;;;;;;4995669;28;20031;-79
2021/12/21 04:06:23;;;;;;;37.60;16.17;;;-0.50;99.90;;;;;;4963426;28;20033;-78
2021/12/21 04:08:48;;;;;;;36.43;14.77;;;-0.60;99.90;;;;;;4979603;28;20023;-79
2021/12/21 04:11:14;;;;;;;34.43;15.50;;;-0.40;99.90;;;;;;4995682;28;20380;-79
2021/12/21 04:13:40;;;;;;;32.13;14.17;;;-0.30;99.90;;;;;;4995719;28;20039;-78
2021/12/21 04:16:06;;;;;;;30.73;12.57;;;-0.20;99.90;;;;;;4980013;28;20022;-78
2021/12/21 04:18:38;;;;;;;33.03;13.50;;;-0.20;99.90;;;;;;4999189;28;20058;-78
2021/12/21 04:21:06;;;;;;;31.20;13.45;;;-0.30;99.90;;;;;;4991827;28;20030;-79
2021/12/21 04:23:32;;;;;;;33.47;14.90;;;-0.30;99.90;;;;;;5009825;28;20037;-79
2021/12/21 04:25:58;;;;;;;42.00;17.50;;;-0.40;99.90;;;;;;5011985;28;20085;-79
2021/12/21 04:28:24;;;;;;;31.33;13.30;;;-0.20;99.90;;;;;;5013085;28;20026;-79
2021/12/21 04:30:49;;;;;;;37.73;16.10;;;0.00;99.90;;;;;;4995997;28;20034;-78
2021/12/21 04:33:15;;;;;;;37.03;16.07;;;0.10;99.90;;;;;;5012050;28;20058;-79
2021/12/21 04:35:41;;;;;;;36.90;14.50;;;0.20;99.90;;;;;;5011255;28;20061;-77
2021/12/21 04:38:21;;;;;;;26.87;12.70;;;0.30;99.90;;;;;;4992963;28;20081;-78
2021/12/21 04:40:55;;;;;;;34.00;13.63;;;0.30;99.90;;;;;;4995743;28;20037;-78
2021/12/21 04:43:21;;;;;;;33.00;14.07;;;0.20;99.90;;;;;;5009884;28;20026;-79
2021/12/21 04:45:47;;;;;;;36.60;14.10;;;0.30;99.90;;;;;;5004002;28;20030;-78
2021/12/21 04:48:13;;;;;;;34.80;14.27;;;0.40;99.90;;;;;;4985338;28;20647;-79
2021/12/21 04:50:40;;;;;;;28.53;13.27;;;0.50;99.90;;;;;;4999076;28;20494;-79
2021/12/21 04:53:05;;;;;;;29.87;12.67;;;0.50;99.90;;;;;;4998439;28;20027;-79
2021/12/21 04:55:31;;;;;;;31.20;12.43;;;0.60;99.90;;;;;;4998554;28;20109;-77
2021/12/21 04:57:57;;;;;;;27.93;11.27;;;0.60;99.90;;;;;;4997059;28;20026;-78
2021/12/21 05:00:23;;;;;;;28.30;11.07;;;0.40;99.90;;;;;;4981419;28;20031;-79
2021/12/21 05:02:48;;;;;;;21.07;10.03;;;0.10;99.90;;;;;;4996790;28;20112;-79
2021/12/21 05:05:14;;;;;;;22.83;10.63;;;-0.20;99.90;;;;;;4996493;28;20022;-78
2021/12/21 05:07:43;;;;;;;29.17;10.40;;;-0.20;99.90;;;;;;4995784;28;20076;-78
2021/12/21 05:10:11;;;;;;;26.83;10.07;;;-0.40;99.90;;;;;;4996527;28;20018;-78
2021/12/21 05:12:37;;;;;;;26.93;11.53;;;-0.60;99.90;;;;;;4979522;28;20030;-80
2021/12/21 05:15:05;;;;;;;29.83;13.00;;;-0.50;99.90;;;;;;4963137;28;20034;-79
2021/12/21 05:17:31;;;;;;;25.67;9.97;;;-0.30;99.90;;;;;;4994281;28;20025;-77
2021/12/21 05:19:57;;;;;;;23.97;11.37;;;-0.30;99.90;;;;;;4994493;28;20139;-79
2021/12/21 05:22:23;;;;;;;28.17;10.33;;;-0.40;99.90;;;;;;4995489;28;20026;-79
2021/12/21 05:24:50;;;;;;;26.73;10.47;;;-0.50;99.90;;;;;;4995030;28;20034;-78
2021/12/21 05:27:17;;;;;;;29.90;11.40;;;-0.70;99.90;;;;;;4993701;28;20298;-79
2021/12/21 05:29:42;;;;;;;33.07;11.70;;;-0.80;99.90;;;;;;4993711;28;20046;-77
2021/12/21 05:32:08;;;;;;;29.87;10.97;;;-0.70;99.90;;;;;;4993351;28;20511;-79
2021/12/21 05:34:34;;;;;;;27.47;10.37;;;-0.80;99.90;;;;;;4961034;28;20395;-79
2021/12/21 05:37:05;;;;;;;26.30;10.57;;;-0.90;99.90;;;;;;4977050;28;20387;-80
2021/12/21 05:39:39;;;;;;;29.23;11.10;;;-1.10;99.90;;;;;;4994313;28;20045;-78
2021/12/21 05:42:06;;;;;;;29.10;11.20;;;-1.20;99.90;;;;;;4978378;28;20270;-79
2021/12/21 05:44:31;;;;;;;31.90;11.80;;;-1.30;99.90;;;;;;4993813;28;20304;-78
2021/12/21 05:46:57;;;;;;;29.97;10.47;;;-1.20;99.90;;;;;;4976831;28;20316;-78
2021/12/21 05:49:23;;;;;;;31.53;11.23;;;-1.20;99.90;;;;;;4993291;28;20034;-78
2021/12/21 05:51:49;;;;;;;27.90;11.50;;;-1.30;99.90;;;;;;4994752;28;20026;-78
2021/12/21 05:54:18;;;;;;;28.13;10.97;;;-1.20;99.90;;;;;;4978757;28;20026;-78
2021/12/21 05:56:44;;;;;;;26.47;11.07;;;-1.30;99.90;;;;;;4996302;28;20269;-79
2021/12/21 05:59:13;;;;;;;24.63;11.00;;;-1.40;99.90;;;;;;4994509;28;20343;-79
2021/12/21 06:01:39;;;;;;;29.17;10.70;;;-1.40;99.90;;;;;;4996642;28;20285;-80
2021/12/21 06:04:05;;;;;;;36.30;13.20;;;-1.50;99.90;;;;;;4997336;28;20269;-81
2021/12/21 06:06:32;;;;;;;28.23;11.27;;;-1.40;99.90;;;;;;4997930;28;20141;-79
2021/12/21 06:09:00;;;;;;;34.23;12.97;;;-1.40;99.90;;;;;;4982553;28;20277;-80
2021/12/21 06:11:26;;;;;;;33.67;12.73;;;-1.30;99.90;;;;;;4998084;28;20293;-81
2021/12/21 06:27:35;;;;;;;30.20;10.53;;;-1.00;99.90;;;;;;4998194;28;20265;-78
2021/12/21 06:30:01;;;;;;;34.60;11.73;;;-1.10;99.90;;;;;;4980506;28;20767;-78
2021/12/21 06:32:27;;;;;;;25.07;10.63;;;-1.10;99.90;;;;;;4979785;28;20479;-79
2021/12/21 06:34:53;;;;;;;31.03;11.30;;;-1.10;99.90;;;;;;4980448;28;20335;-79
2021/12/21 06:37:19;;;;;;;22.67;11.00;;;-1.20;99.90;;;;;;4997240;28;20034;-78
2021/12/21 06:39:45;;;;;;;35.43;14.20;;;-1.40;99.90;;;;;;4997052;28;20038;-79
2021/12/21 06:42:11;;;;;;;37.27;17.93;;;-1.40;99.90;;;;;;4996949;28;20459;-78
2021/12/21 06:44:42;;;;;;;30.77;14.57;;;-1.30;99.90;;;;;;4996738;28;20148;-79
2021/12/21 06:52:40;;;;;;;28.43;11.80;;;-0.90;99.90;;;;;;4997168;28;20698;-78
2021/12/21 06:55:07;;;;;;;29.57;12.40;;;-0.70;99.90;;;;;;4984738;28;20289;-78
2021/12/21 06:57:34;;;;;;;29.00;12.30;;;-0.70;99.90;;;;;;5000469;28;20266;-79
2021/12/21 07:00:00;;;;;;;31.03;10.97;;;-0.60;99.90;;;;;;4984784;28;20677;-81
2021/12/21 07:02:27;;;;;;;23.53;10.80;;;-0.60;99.90;;;;;;5002011;28;20273;-80
2021/12/21 07:04:52;;;;;;;24.93;10.80;;;-0.70;99.90;;;;;;5002832;28;20342;-78
2021/12/21 07:07:18;;;;;;;29.07;11.87;;;-0.70;99.90;;;;;;4984489;28;20320;-80
2021/12/21 07:09:48;;;;;;;26.67;10.87;;;-0.70;99.90;;;;;;5002406;28;20169;-80
2021/12/21 07:17:48;;;;;;;31.50;11.37;;;-0.80;99.90;;;;;;4996961;28;20034;-78
2021/12/21 07:18:10;;;;;;;29.10;11.20;;;-1.00;99.90;;;;;;4997501;28;20663;-78
2021/12/21 07:20:36;;;;;;;32.78;12.80;;;-1.00;99.90;;;;;;4996199;28;20372;-80
2021/12/21 07:23:03;;;;;;;34.50;12.27;;;-0.90;99.90;;;;;;4995571;28;20046;-79
2021/12/21 07:25:30;;;;;;;27.03;11.20;;;-0.80;99.90;;;;;;4995633;28;20265;-79
2021/12/21 07:27:56;;;;;;;27.77;12.10;;;-0.70;99.90;;;;;;4996750;28;20257;-79
2021/12/21 07:30:22;;;;;;;29.50;11.53;;;-0.70;99.90;;;;;;4995109;28;20304;-79
2021/12/21 07:32:48;;;;;;;22.97;11.17;;;-0.80;99.90;;;;;;4994946;28;20054;-78
2021/12/21 07:35:14;;;;;;;31.07;13.30;;;-0.90;99.90;;;;;;4995698;28;20641;-79
2021/12/21 07:37:40;;;;;;;25.53;12.10;;;-0.90;99.90;;;;;;4979390;28;20106;-80
2021/12/21 07:40:07;;;;;;;37.80;11.40;;;-1.00;99.90;;;;;;4995184;28;20493;-79
2021/12/21 07:42:33;;;;;;;32.83;12.40;;;-1.10;99.90;;;;;;4979023;28;20073;-79
2021/12/21 07:44:59;;;;;;;30.53;11.93;;;-1.10;99.90;;;;;;4996516;28;20295;-79
2021/12/21 07:47:25;;;;;;;29.47;12.73;;;-1.20;99.90;;;;;;4979134;28;20089;-80
2021/12/21 07:49:51;;;;;;;28.90;11.90;;;-1.20;99.90;;;;;;4994849;28;20044;-80
2021/12/21 07:52:18;;;;;;;30.77;12.57;;;-1.10;99.90;;;;;;4994906;28;20285;-79
2021/12/21 07:54:43;;;;;;;33.83;12.90;;;-1.00;99.90;;;;;;4995367;28;20681;-80
2021/12/21 07:57:10;;;;;;;33.57;12.73;;;-0.90;99.90;;;;;;4996264;28;20292;-80
2021/12/21 07:59:38;;;;;;;33.83;13.40;;;-0.80;99.90;;;;;;4995325;28;20551;-80
2021/12/21 08:02:05;;;;;;;30.67;12.73;;;-0.60;99.90;;;;;;4995000;28;20308;-78
2021/12/21 08:04:31;;;;;;;30.93;12.33;;;-0.40;99.90;;;;;;4994505;28;20141;-80
2021/12/21 08:07:03;;;;;;;24.73;11.73;;;0.00;99.90;;;;;;4980655;28;20353;-84
2021/12/21 08:09:38;;;;;;;26.10;10.75;;;0.50;99.90;;;;;;5001731;28;20118;-79
2021/12/21 08:14:37;;;;;;;24.90;10.00;;;1.40;99.90;;;;;;5006540;28;20073;-88
2021/12/21 08:17:03;;;;;;;24.70;10.40;;;1.50;99.90;;;;;;4973687;28;20034;-80
2021/12/21 08:19:29;;;;;;;19.30;9.93;;;1.70;99.90;;;;;;4973983;28;20027;-88
2021/12/21 08:21:55;;;;;;;22.30;10.23;;;1.70;99.90;;;;;;4974074;28;20030;-86
2021/12/21 08:24:21;;;;;;;22.20;9.57;;;1.90;99.40;;;;;;4990279;28;20367;-86
2021/12/21 08:26:46;;;;;;;20.50;9.60;;;2.10;99.20;;;;;;5006454;28;20018;-87
2021/12/21 08:29:12;;;;;;;19.00;9.30;;;2.30;99.30;;;;;;4992275;28;20030;-87
2021/12/21 08:31:38;;;;;;;21.70;9.63;;;2.70;99.70;;;;;;4990762;28;20061;-88
2021/12/21 08:34:03;;;;;;;18.60;9.30;;;3.00;97.10;;;;;;5006030;28;20061;-87
2021/12/21 08:36:31;;;;;;;19.07;9.50;;;3.20;95.40;;;;;;4990428;28;20053;-86
2021/12/21 08:38:57;;;;;;;17.27;9.37;;;3.50;93.90;;;;;;4989846;28;20061;-87
2021/12/21 08:41:23;;;;;;;21.27;8.93;;;3.80;93.30;;;;;;4990088;28;20035;-88
2021/12/21 08:43:51;;;;;;;18.90;9.10;;;4.00;92.20;;;;;;5009071;28;20089;-90
2021/12/21 08:46:16;;;;;;;18.57;9.43;;;4.20;90.70;;;;;;5009687;28;20064;-88
2021/12/21 08:48:42;;;;;;;17.73;9.30;;;4.30;89.60;;;;;;5012994;28;20082;-88
2021/12/21 08:51:08;;;;;;;25.20;12.03;;;4.40;88.10;;;;;;4977002;28;20039;-78
2021/12/21 08:53:36;;;;;;;21.37;12.10;;;4.70;90.70;;;;;;4994048;28;20054;-85
2021/12/21 08:56:03;;;;;;;27.13;13.73;;;5.20;90.00;;;;;;5010501;28;20038;-87
2021/12/21 08:58:28;;;;;;;19.43;10.57;;;5.40;82.50;;;;;;5007637;28;20022;-88
2021/12/21 09:00:54;;;;;;;21.03;10.27;;;5.60;81.10;;;;;;4995748;28;20125;-87
2021/12/21 09:03:20;;;;;;;23.97;12.03;;;5.80;80.60;;;;;;5010114;28;20484;-88
2021/12/21 09:05:46;;;;;;;27.63;15.03;;;5.70;79.20;;;;;;5006229;28;20026;-88
2021/12/21 09:08:12;;;;;;;26.10;11.93;;;5.80;83.20;;;;;;4975481;28;20026;-80
2021/12/21 09:10:39;;;;;;;25.03;14.07;;;6.10;80.40;;;;;;5008952;28;20026;-89
2021/12/21 09:13:07;;;;;;;41.13;15.77;;;6.10;79.20;;;;;;4981267;28;20046;-88
2021/12/21 09:15:32;;;;;;;34.33;17.13;;;6.50;81.50;;;;;;4991601;28;20041;-88
2021/12/21 09:17:59;;;;;;;31.93;18.50;;;7.00;80.10;;;;;;5000567;28;20366;-87
2021/12/21 09:20:27;;;;;;;26.00;13.87;;;7.30;77.40;;;;;;4999810;28;20022;-88
2021/12/21 09:22:53;;;;;;;26.27;13.47;;;7.70;74.90;;;;;;4980270;28;20034;-89
2021/12/21 09:25:19;;;;;;;28.63;16.13;;;7.80;72.00;;;;;;4995059;28;20064;-85
2021/12/21 09:27:46;;;;;;;20.80;11.77;;;7.80;71.60;;;;;;4995515;28;20026;-86
2021/12/21 09:30:15;;;;;;;23.87;10.87;;;7.90;69.90;;;;;;4995016;28;20076;-86
2021/12/21 09:32:42;;;;;;;23.33;12.67;;;7.90;68.20;;;;;;4995163;28;20078;-86
2021/12/21 09:35:08;;;;;;;20.60;11.53;;;7.90;68.70;;;;;;4994727;28;20041;-82
2021/12/21 09:37:34;;;;;;;27.83;11.47;;;7.90;68.50;;;;;;4977923;28;20178;-84
2021/12/21 09:40:02;;;;;;;23.40;12.37;;;7.90;67.90;;;;;;4994737;28;20022;-86
2021/12/21 09:42:30;;;;;;;21.13;11.97;;;7.90;68.30;;;;;;4996258;28;20141;-86
2021/12/21 09:44:57;;;;;;;22.03;10.93;;;8.20;68.80;;;;;;4995392;28;20077;-84
2021/12/21 09:47:23;;;;;;;20.90;12.73;;;8.20;66.30;;;;;;4997455;28;20209;-82
2021/12/21 09:49:50;;;;;;;25.27;13.93;;;8.50;68.60;;;;;;4977936;28;20031;-84
2021/12/21 09:52:24;;;;;;;22.23;14.03;;;8.90;67.80;;;;;;4978002;28;20035;-80
2021/12/21 09:54:49;;;;;;;17.57;9.67;;;9.00;65.90;;;;;;4995527;28;20062;-85
2021/12/21 09:57:18;;;;;;;15.27;8.90;;;9.00;63.60;;;;;;4994297;28;20022;-81
2021/12/21 09:59:45;;;;;;;16.87;9.63;;;8.90;63.60;;;;;;4995254;28;20027;-86
2021/12/21 10:02:12;;;;;;;17.17;8.93;;;8.80;63.90;;;;;;4994599;28;20121;-87
2021/12/21 10:04:56;;;;;;;18.73;10.97;;;8.80;63.60;;;;;;4995915;28;20029;-87
2021/12/21 10:07:22;;;;;;;23.70;10.57;;;8.90;65.60;;;;;;4999695;28;20086;-88
2021/12/21 10:09:50;;;;;;;14.27;7.83;;;9.30;64.60;;;;;;5000200;28;20049;-89
2021/12/21 10:12:35;;;;;;;15.23;8.13;;;9.30;61.30;;;;;;4997612;28;20120;-88
2021/12/21 10:15:12;;;;;;;12.07;6.83;;;9.00;61.40;;;;;;5000053;28;20030;-89
2021/12/21 10:17:48;;;;;;;12.23;8.10;;;8.90;62.10;;;;;;4994014;28;20014;-87
2021/12/21 10:20:14;;;;;;;13.03;7.63;;;9.00;63.40;;;;;;4994104;28;20177;-89
2021/12/21 10:22:50;;;;;;;11.00;6.30;;;9.20;62.80;;;;;;4993538;28;20101;-85
2021/12/21 10:25:16;;;;;;;15.03;6.93;;;9.20;61.30;;;;;;4994046;28;20094;-89
2021/12/21 10:27:44;;;;;;;13.67;7.03;;;8.90;60.30;;;;;;4996039;28;20018;-89
2021/12/21 10:30:10;;;;;;;14.70;7.53;;;8.90;61.90;;;;;;4999619;28;20026;-91
2021/12/21 10:32:36;;;;;;;11.93;6.17;;;8.80;61.20;;;;;;4998881;28;20501;-90
2021/12/21 10:35:10;;;;;;;14.03;7.50;;;8.70;61.20;;;;;;4982143;28;20026;-90
2021/12/21 10:37:39;;;;;;;12.47;6.70;;;8.70;62.20;;;;;;4998597;28;20030;-90
2021/12/21 10:40:30;;;;;;;13.33;7.30;;;8.80;62.10;;;;;;5002548;28;20022;-90
2021/12/21 10:43:07;;;;;;;13.10;7.13;;;9.10;62.90;;;;;;5001158;28;20063;-91
2021/12/21 10:45:44;;;;;;;8.97;5.83;;;9.70;61.90;;;;;;5002862;28;20076;-91
2021/12/21 10:48:16;;;;;;;14.43;6.07;;;9.60;58.90;;;;;;5001369;28;20083;-90
2021/12/21 10:50:47;;;;;;;10.93;5.15;;;9.60;60.20;;;;;;4984073;28;20033;-90
2021/12/21 10:53:26;;;;;;;8.53;3.70;;;9.80;58.10;;;;;;4999040;28;20031;-92
2021/12/21 10:56:02;;;;;;;6.47;3.60;;;9.80;56.00;;;;;;4999756;28;20030;-91
2021/12/21 10:58:29;;;;;;;9.30;3.97;;;9.50;56.30;;;;;;5000459;28;20042;-90
2021/12/21 11:00:58;;;;;;;6.90;3.93;;;9.30;56.70;;;;;;4998799;28;20034;-90
2021/12/21 11:03:48;;;;;;;8.63;3.57;;;9.40;57.10;;;;;;5002745;28;20070;-80
2021/12/21 11:06:23;;;;;;;11.03;4.63;;;9.30;54.20;;;;;;5003092;28;20387;-89
2021/12/21 11:08:53;;;;;;;9.70;3.83;;;9.00;57.30;;;;;;5006301;28;20022;-90
2021/12/21 11:11:32;;;;;;;10.07;4.20;;;9.30;57.70;;;;;;5009639;28;20023;-88
2021/12/21 11:14:19;;;;;;;8.23;3.37;;;9.40;56.90;;;;;;5001138;28;20050;-91
2021/12/21 11:16:46;;;;;;;8.67;3.33;;;9.40;57.60;;;;;;4998473;28;20473;-92
2021/12/21 11:19:14;;;;;;;9.00;3.83;;;9.60;57.30;;;;;;4998452;28;20038;-91
2021/12/21 11:21:41;;;;;;;8.60;4.33;;;9.80;57.50;;;;;;4998520;28;20129;-92
2021/12/21 11:24:09;;;;;;;8.37;3.80;;;10.10;58.00;;;;;;4998749;28;20458;-89
2021/12/21 11:26:37;;;;;;;8.33;3.40;;;10.40;57.00;;;;;;5003681;28;20106;-92
2021/12/21 11:29:06;;;;;;;5.10;3.17;;;10.30;55.20;;;;;;5005920;28;20117;-91
2021/12/21 11:31:39;;;;;;;7.53;3.13;;;10.00;54.70;;;;;;5007886;28;20462;-92
2021/12/21 11:34:08;;;;;;;5.63;2.67;;;9.60;54.40;;;;;;5016313;28;20058;-85
2021/12/21 11:39:22;;;;;;;9.60;3.27;;;9.00;56.20;;;;;;4999281;28;20048;-93
2021/12/21 11:41:50;;;;;;;7.23;3.10;;;8.70;56.20;;;;;;5010694;28;20037;-91
2021/12/21 11:44:43;;;;;;;8.27;3.20;;;8.80;59.90;;;;;;5020589;28;20041;-91
2021/12/21 11:47:13;;;;;;;5.30;2.80;;;8.90;59.70;;;;;;5019565;28;20034;-91
2021/12/21 11:49:50;;;;;;;10.03;3.93;;;8.90;59.20;;;;;;5020064;28;20103;-86
2021/12/21 11:52:21;;;;;;;8.47;5.00;;;9.00;59.00;;;;;;5013808;28;20091;-92
2021/12/21 11:54:54;;;;;;;7.53;3.53;;;9.10;60.30;;;;;;5016356;28;20037;-92
2021/12/21 11:57:36;;;;;;;6.20;2.80;;;9.20;60.50;;;;;;5016843;28;20041;-80
2021/12/21 12:00:10;;;;;;;6.57;2.87;;;9.10;56.90;;;;;;5013001;28;20049;-89
2021/12/21 12:02:37;;;;;;;6.00;2.93;;;8.90;58.30;;;;;;5000792;28;20471;-92
2021/12/21 12:05:16;;;;;;;5.33;2.70;;;8.80;60.40;;;;;;5000209;28;20026;-91
2021/12/21 12:07:41;;;;;;;5.97;3.07;;;8.90;60.00;;;;;;4999286;28;20061;-89
2021/12/21 12:10:11;;;;;;;6.53;3.10;;;8.70;58.60;;;;;;4983485;28;20034;-89
2021/12/21 12:12:37;;;;;;;6.93;2.90;;;8.30;58.90;;;;;;4998418;28;20057;-85
2021/12/21 12:15:06;;;;;;;6.00;3.00;;;7.90;60.40;;;;;;4996184;28;20030;-87
2021/12/21 12:17:43;;;;;;;7.50;3.50;;;7.60;60.30;;;;;;5015711;28;20026;-77
2021/12/21 12:20:10;;;;;;;8.43;3.10;;;7.40;61.40;;;;;;5019470;28;20019;-82
2021/12/21 12:22:43;;;;;;;8.10;3.03;;;7.00;61.70;;;;;;5018357;28;20034;-78
2021/12/21 12:25:21;;;;;;;6.55;3.47;;;6.90;63.80;;;;;;5017295;28;20028;-87
2021/12/21 12:27:51;;;;;;;6.50;2.90;;;7.00;64.00;;;;;;5005737;28;20422;-90
2021/12/21 12:30:23;;;;;;;8.13;3.07;;;7.20;64.40;;;;;;4997483;28;20022;-91
2021/12/21 12:32:55;;;;;;;6.47;2.43;;;7.20;62.70;;;;;;4996703;28;20120;-88
2021/12/21 12:35:24;;;;;;;5.23;2.03;;;7.10;62.40;;;;;;4998224;28;20479;-90
2021/12/21 12:38:02;;;;;;;6.63;2.60;;;6.60;61.20;;;;;;4989059;28;20031;-90
2021/12/21 12:40:43;;;;;;;9.40;2.67;;;6.40;63.40;;;;;;5011932;28;20022;-87
2021/12/21 12:43:14;;;;;;;5.40;2.20;;;6.40;64.30;;;;;;5014066;28;20041;-87
2021/12/21 12:45:49;;;;;;;6.97;2.53;;;6.40;64.00;;;;;;5011569;28;20056;-88
2021/12/21 12:48:31;;;;;;;7.80;3.10;;;6.20;64.00;;;;;;5006792;28;20031;-87
2021/12/21 12:51:01;;;;;;;5.32;2.78;;;6.00;64.60;;;;;;5003138;28;20023;-88
2021/12/21 12:53:53;;;;;;;4.33;2.10;;;5.70;63.70;;;;;;4983523;28;20042;-89
2021/12/21 12:56:20;;;;;;;5.30;2.73;;;5.60;66.20;;;;;;4993957;28;20085;-89
2021/12/21 12:58:53;;;;;;;8.07;2.63;;;5.70;67.20;;;;;;4982578;28;20050;-83
2021/12/21 13:01:23;;;;;;;5.70;2.47;;;5.70;67.10;;;;;;4999091;28;20030;-89
2021/12/21 13:03:50;;;;;;;8.40;2.90;;;5.70;67.30;;;;;;4984228;28;20037;-88
2021/12/21 13:06:20;;;;;;;7.20;2.40;;;5.80;67.20;;;;;;5000484;28;20027;-89
2021/12/21 13:08:46;;;;;;;6.73;2.30;;;5.80;67.10;;;;;;5000384;28;20081;-89
2021/12/21 13:11:17;;;;;;;5.57;2.30;;;5.70;67.10;;;;;;4996183;28;20049;-89
2021/12/21 13:13:45;;;;;;;6.00;2.60;;;5.50;66.80;;;;;;4996332;28;20117;-89
2021/12/21 13:16:18;;;;;;;8.17;2.40;;;5.30;67.00;;;;;;4996905;28;20118;-88
2021/12/21 13:18:47;;;;;;;9.20;2.70;;;5.20;67.30;;;;;;4995428;28;20160;-88
2021/12/21 13:21:32;;;;;;;6.30;2.03;;;5.10;67.90;;;;;;4995631;28;20091;-87
2021/12/21 13:24:13;;;;;;;5.40;2.30;;;5.10;68.30;;;;;;4996905;28;20023;-86
2021/12/21 13:26:45;;;;;;;5.57;1.80;;;4.90;67.20;;;;;;4995524;28;20057;-79
2021/12/21 13:29:14;;;;;;;4.83;1.90;;;4.70;67.60;;;;;;4997066;28;20026;-87
2021/12/21 13:31:41;;;;;;;14.43;5.20;;;4.60;68.40;;;;;;4982738;28;20026;-78
2021/12/21 13:34:08;;;;;;;7.07;2.57;;;4.60;69.10;;;;;;4999134;28;20046;-88
2021/12/21 13:36:41;;;;;;;8.83;2.83;;;4.60;69.20;;;;;;4997421;28;20026;-87
2021/12/21 13:39:17;;;;;;;;;;;4.60;69.20;;;;;;4999807;28;20023;-87
2021/12/21 13:41:54;;;;;;;13.13;2.50;;;4.70;70.80;;;;;;4998514;28;19906;-82
2021/12/21 13:44:26;;;;;;;5.87;2.53;;;4.70;70.70;;;;;;4999282;28;20085;-86
2021/12/21 13:46:53;;;;;;;7.50;2.60;;;4.70;71.20;;;;;;5004087;28;20022;-85
2021/12/21 13:49:19;;;;;;;6.57;2.43;;;4.70;71.40;;;;;;4988533;28;20345;-87
2021/12/21 13:51:53;;;;;;;6.67;2.47;;;4.70;71.20;;;;;;4992404;28;20383;-84
2021/12/21 13:54:20;;;;;;;6.80;2.33;;;4.70;71.40;;;;;;5007511;28;20022;-87
2021/12/21 13:56:47;;;;;;;6.40;2.67;;;4.60;71.00;;;;;;4991061;28;20165;-85